Seoul Air Base
RKSM : now visible

Airfield :











YOU CAN JOIN US ON...

 
LOGIN :

Register | Disclaimer

   EN    FR    IT 

 









Legend :    VFR   Marginal VFR   IFR   Intensive IFR   Very Intensive IFR
Visi :
Ceiling :
>= 8 km
>= 3000ft
5 to 8 km
1000 to 3000 ft
1500m to 5 km
500 to 1000 ft
800 to 1500m
200 to 500 ft
< 800m
< 200 ft
Symbols :   Thunderstorms  Fog  Heavy snow  Heavy precipitations  Wind > 20 kt







- Airport Elevation : 92 ft
- IATA code : SSN


RKSM - Seoul Air Base

CURRENT METAR :
  • 261500Z 16002KT 9999 FEW200 06/05 A3011

EXPIRED METARs :
  • 261400Z 01003KT 9999 FEW200 08/04 A3010
  • 261300Z 00000KT 9999 SCT100 08/06 A3008

TAF TAF RKSM
Valid from the 26 at 12:00 until the 27 at 18:00 UTC


261100Z 2612/2718 03006KT 9999 BKN030
BECMG 2614/2615 24006KT 9999 SCT030 SCT200 TN06/2621Z TX17/2706Z
RKRR FIR / Asia



MET'MAP, your aeronautical weather chart ! - Copyright ORBIFLY December 2007 - Disclaimer

ORBIFLY MET'MAP TEAM :

Programming & Development : Alexandra Zaïnal
Concept & Development : Baudouin d'Aumeries
Co-Development & Prog : Marc-Olivier Méhu
Technical & hardware support : Manuel Goepfert

Contact : metmap@orbifly.com




SOURCES & CREDITS :

   NOAA       Earth
Advisory